To NAV CANADA Home Page Login to a new session Search on AWWS site Feedback and Comments Disclaimer Vers la page française équivalente Tips FAQ What's new on the site To the Forecasts and Observations / NOTAM section To "File a Flight Plan" website Publications and other links Update of the User's profile FIC Telephone Numbers My Weather Data Folder Route Weather Data Regional Weather Data Local Weather Data To the Forecasts and Observations / NOTAM section
Request Generated 08/22/2017 at 03:25:27 UTC . Weather information available at that time is displayed.

METAR/TAF

FORT CHIPEWYAN/AB    (show WxCam)

METAR CYPY 220300Z AUTO 34003KT 9SM CLR 14/09 A2996 RMK SLP155
DENSITY ALT 800FT=
METAR CYPY 220200Z AUTO 01003KT 9SM CLR 17/10 A2994 RMK SLP149
DENSITY ALT 1000FT=
METAR CYPY 220100Z AUTO 32005KT 280V350 9SM CLR 18/09 A2993 RMK
SLP146 DENSITY ALT 1200FT=

TAF CYPY 212338Z 2200/2206 28005KT P6SM BKN060
BECMG 2201/2203 VRB03KT
RMK FCST BASED ON AUTO OBS. NXT FCST WILL BE ISSUED AT 221145Z=
Your time UTC time
Weather data provided by Environment Canada and NAV CANADA